Time;durP1;ratioP1;P1;durP2;ratioP2;P2;SDS_P1;SDS_P2;PMS_P1;PMS_P2;Temp;Humidity;BMP_temperature;BMP_pressure;BME280_temperature;BME280_humidity;BME280_pressure;Samples;Min_cycle;Max_cycle;Signal;HPM_P1;HPM_P2
2023/01/08 00:00:50;;;;;;;1.17;0.40;;;9.70;99.90;;;;;;6276798;22;20364;-79
2023/01/08 00:03:17;;;;;;;0.80;0.40;;;9.70;99.90;;;;;;6277092;22;19996;-78
2023/01/08 00:05:42;;;;;;;1.90;0.40;;;9.70;99.90;;;;;;6251331;22;20022;-78
2023/01/08 00:08:09;;;;;;;1.27;0.50;;;9.70;99.90;;;;;;6251014;22;20351;-79
2023/01/08 00:10:36;;;;;;;2.42;0.40;;;9.70;99.90;;;;;;6276424;22;20036;-78
2023/01/08 00:13:02;;;;;;;0.90;0.32;;;9.70;99.90;;;;;;6276345;22;20003;-78
2023/01/08 00:15:29;;;;;;;1.67;0.40;;;9.70;99.90;;;;;;6276017;22;20015;-79
2023/01/08 00:17:55;;;;;;;1.40;0.32;;;9.70;99.90;;;;;;6250973;22;20379;-79
2023/01/08 00:20:21;;;;;;;2.15;0.40;;;9.60;99.90;;;;;;6276694;22;20012;-79
2023/01/08 00:22:50;;;;;;;1.23;0.43;;;9.60;99.90;;;;;;6276901;22;20327;-79
2023/01/08 00:25:16;;;;;;;1.63;0.40;;;9.60;99.90;;;;;;6303305;22;20007;-79
2023/01/08 00:27:42;;;;;;;2.13;0.47;;;9.50;99.90;;;;;;6303894;22;20274;-79
2023/01/08 00:30:08;;;;;;;1.05;0.45;;;9.60;99.90;;;;;;6276251;22;20015;-78
2023/01/08 00:32:34;;;;;;;1.70;0.50;;;9.60;99.90;;;;;;6303077;22;20377;-78
2023/01/08 00:35:00;;;;;;;1.27;0.40;;;9.50;99.90;;;;;;6276344;22;20057;-78
2023/01/08 00:37:27;;;;;;;1.52;0.40;;;9.60;99.90;;;;;;6276777;22;20010;-78
2023/01/08 00:39:53;;;;;;;1.20;0.40;;;9.60;99.90;;;;;;6250213;22;20003;-79
2023/01/08 00:42:18;;;;;;;0.88;0.40;;;9.60;99.90;;;;;;6276814;22;20002;-79
2023/01/08 00:44:44;;;;;;;1.10;0.40;;;9.60;99.90;;;;;;6276256;22;20049;-80
2023/01/08 00:47:10;;;;;;;1.08;0.40;;;9.60;99.90;;;;;;6276275;22;20007;-79
2023/01/08 00:49:36;;;;;;;1.15;0.40;;;9.60;99.90;;;;;;6250775;22;20019;-79
2023/01/08 00:52:02;;;;;;;1.80;0.50;;;9.60;99.90;;;;;;6275991;22;20003;-78
2023/01/08 00:54:27;;;;;;;2.22;0.40;;;9.60;99.90;;;;;;6275610;22;20347;-79
2023/01/08 00:56:56;;;;;;;1.55;0.40;;;9.60;99.90;;;;;;6276193;22;20078;-79
2023/01/08 00:59:22;;;;;;;2.15;0.50;;;9.60;99.90;;;;;;6276456;22;20003;-78
2023/01/08 01:01:47;;;;;;;2.47;0.43;;;9.60;99.90;;;;;;6275912;22;20034;-78
2023/01/08 01:04:16;;;;;;;1.35;0.40;;;9.50;99.90;;;;;;6276469;22;20006;-80
2023/01/08 01:06:42;;;;;;;1.98;0.50;;;9.50;99.90;;;;;;6303822;22;20023;-78
2023/01/08 01:09:08;;;;;;;2.15;0.40;;;9.50;99.90;;;;;;6249914;22;20317;-78
2023/01/08 01:11:34;;;;;;;2.28;0.50;;;9.50;99.90;;;;;;6250856;22;20090;-79
2023/01/08 01:14:00;;;;;;;1.48;0.40;;;9.60;99.90;;;;;;6250057;22;20066;-79
2023/01/08 01:16:25;;;;;;;2.65;0.52;;;9.50;99.90;;;;;;6276152;22;20101;-80
2023/01/08 01:18:52;;;;;;;1.30;0.50;;;9.60;99.90;;;;;;6250417;22;20012;-79
2023/01/08 01:21:23;;;;;;;1.15;0.40;;;9.50;99.90;;;;;;6250768;22;20037;-79
2023/01/08 01:23:51;;;;;;;1.88;0.40;;;9.50;99.90;;;;;;6250380;22;20007;-79
2023/01/08 01:26:18;;;;;;;1.13;0.50;;;9.60;99.90;;;;;;6276305;22;20007;-80
2023/01/08 01:28:49;;;;;;;1.45;0.50;;;9.60;99.90;;;;;;6275992;22;20006;-79
2023/01/08 01:31:15;;;;;;;2.85;0.50;;;9.70;99.90;;;;;;6250249;22;20019;-78
2023/01/08 01:33:41;;;;;;;1.73;0.40;;;9.60;99.90;;;;;;6303592;22;20364;-79
2023/01/08 01:36:09;;;;;;;2.00;0.60;;;9.60;99.90;;;;;;6275037;22;20709;-78
2023/01/08 01:38:34;;;;;;;2.92;0.60;;;9.60;99.90;;;;;;6250654;22;20003;-80
2023/01/08 01:41:00;;;;;;;1.25;0.47;;;9.70;99.90;;;;;;6301712;22;20324;-79
2023/01/08 01:43:41;;;;;;;1.38;0.50;;;9.60;99.90;;;;;;6275811;22;20313;-78
2023/01/08 01:46:25;;;;;;;1.92;0.40;;;9.60;99.90;;;;;;6250421;22;20014;-79
2023/01/08 01:48:54;;;;;;;2.08;0.45;;;9.60;99.90;;;;;;6250019;22;20007;-80
2023/01/08 01:51:20;;;;;;;1.27;0.40;;;9.60;99.90;;;;;;6275715;22;20098;-79
2023/01/08 01:53:46;;;;;;;1.65;0.40;;;9.60;99.90;;;;;;6303122;22;20008;-78
2023/01/08 01:56:12;;;;;;;2.35;0.50;;;9.50;99.90;;;;;;6250448;22;20436;-80
2023/01/08 01:58:38;;;;;;;1.73;0.50;;;9.60;99.90;;;;;;6275919;22;20007;-79
2023/01/08 02:01:06;;;;;;;1.30;0.40;;;9.60;99.90;;;;;;6275167;22;20007;-80
2023/01/08 02:03:35;;;;;;;2.22;0.40;;;9.50;99.90;;;;;;6276021;22;20359;-79
2023/01/08 02:06:33;;;;;;;2.55;0.50;;;9.50;99.90;;;;;;6274877;22;20003;-79
2023/01/08 02:09:05;;;;;;;1.20;0.40;;;9.60;99.90;;;;;;6249960;22;20018;-79
2023/01/08 02:15:12;;;;;;;1.40;0.35;;;9.60;99.90;;;;;;6274995;22;20017;-79
2023/01/08 02:17:43;;;;;;;1.63;0.50;;;9.60;99.90;;;;;;6303212;22;20130;-79
2023/01/08 02:20:36;;;;;;;2.38;0.40;;;9.60;99.90;;;;;;6274812;22;20081;-79
2023/01/08 02:23:11;;;;;;;1.10;0.40;;;9.60;99.90;;;;;;6301412;22;20007;-79
2023/01/08 02:25:59;;;;;;;1.60;0.40;;;9.60;99.90;;;;;;6249998;22;20082;-79
2023/01/08 02:28:26;;;;;;;1.40;0.50;;;9.60;99.90;;;;;;6301473;22;20018;-78
2023/01/08 02:30:53;;;;;;;4.75;0.50;;;9.60;99.90;;;;;;6274853;22;20006;-79
2023/01/08 02:33:18;;;;;;;2.42;0.65;;;9.60;99.90;;;;;;6275348;22;20010;-79
2023/01/08 02:35:53;;;;;;;1.45;0.40;;;9.70;99.90;;;;;;6275026;22;20019;-78
2023/01/08 02:38:18;;;;;;;1.80;0.40;;;9.60;99.90;;;;;;6274973;22;20021;-79
2023/01/08 02:40:57;;;;;;;3.25;0.57;;;9.70;99.90;;;;;;6275180;22;20106;-79
2023/01/08 02:43:44;;;;;;;1.17;0.50;;;9.70;99.90;;;;;;6250279;22;20432;-78
2023/01/08 02:46:13;;;;;;;1.08;0.40;;;9.70;99.90;;;;;;6302792;22;20439;-79
2023/01/08 02:48:48;;;;;;;1.40;0.40;;;9.60;99.90;;;;;;6302214;22;20083;-79
2023/01/08 02:51:20;;;;;;;1.10;0.40;;;9.70;99.90;;;;;;6249642;22;20052;-78
2023/01/08 02:53:50;;;;;;;1.92;0.40;;;9.70;99.90;;;;;;6302849;22;20011;-78
2023/01/08 02:56:21;;;;;;;1.85;0.68;;;9.70;99.90;;;;;;6250157;22;20065;-79
2023/01/08 02:58:49;;;;;;;2.05;0.50;;;9.60;99.90;;;;;;6275873;22;20007;-78
2023/01/08 03:01:16;;;;;;;1.80;0.30;;;9.50;99.90;;;;;;6275184;22;20050;-79
2023/01/08 03:03:47;;;;;;;1.70;0.30;;;9.30;99.90;;;;;;6274915;22;20004;-78
2023/01/08 03:06:15;;;;;;;1.10;0.20;;;9.20;99.90;;;;;;6275511;22;20042;-78
2023/01/08 03:08:44;;;;;;;1.67;0.20;;;9.10;99.90;;;;;;6275380;22;20339;-78
2023/01/08 03:11:13;;;;;;;1.02;0.20;;;8.90;99.90;;;;;;6275085;22;20006;-78
2023/01/08 03:13:44;;;;;;;3.67;0.13;;;8.70;99.90;;;;;;6249482;22;20060;-79
2023/01/08 03:16:16;;;;;;;2.33;0.13;;;8.60;99.90;;;;;;6274391;22;20015;-78
2023/01/08 03:18:49;;;;;;;2.55;0.43;;;8.50;99.90;;;;;;6249343;22;20007;-78
2023/01/08 03:21:16;;;;;;;2.50;0.10;;;8.40;99.90;;;;;;6249962;22;20127;-79
2023/01/08 03:23:44;;;;;;;0.75;0.10;;;8.30;99.90;;;;;;6275982;22;20031;-78
2023/01/08 03:26:13;;;;;;;2.60;0.20;;;8.30;99.90;;;;;;6276980;22;20007;-78
2023/01/08 03:28:45;;;;;;;1.02;0.00;;;8.20;99.90;;;;;;6277738;22;20009;-78
2023/01/08 03:31:14;;;;;;;2.60;0.10;;;8.20;99.90;;;;;;6304457;22;20053;-79
2023/01/08 03:33:41;;;;;;;1.00;0.08;;;8.20;99.90;;;;;;6251147;22;20056;-78
2023/01/08 03:36:10;;;;;;;1.98;0.10;;;8.10;99.90;;;;;;6276460;22;20704;-78
2023/01/08 03:38:43;;;;;;;0.73;0.10;;;8.10;99.90;;;;;;6304644;22;20010;-79
2023/01/08 03:41:13;;;;;;;0.95;0.00;;;8.10;99.90;;;;;;6277004;22;20011;-80
2023/01/08 03:43:39;;;;;;;1.85;0.15;;;8.10;99.90;;;;;;6277387;22;20003;-79
2023/01/08 03:46:12;;;;;;;0.60;0.10;;;8.10;99.90;;;;;;6276633;22;20119;-79
2023/01/08 03:48:39;;;;;;;0.85;0.10;;;8.10;99.90;;;;;;6276264;22;20089;-79
2023/01/08 03:51:09;;;;;;;1.80;0.20;;;8.10;99.90;;;;;;6251094;22;20329;-79
2023/01/08 03:53:35;;;;;;;1.05;0.10;;;8.00;99.90;;;;;;6277080;22;20011;-79
2023/01/08 03:56:01;;;;;;;0.43;0.00;;;8.00;99.90;;;;;;6302242;22;20466;-79
2023/01/08 03:58:27;;;;;;;0.68;0.10;;;8.00;99.90;;;;;;6277316;22;20015;-78
2023/01/08 04:00:52;;;;;;;1.38;0.10;;;8.00;99.90;;;;;;6303715;22;20011;-79
2023/01/08 04:03:18;;;;;;;0.88;0.20;;;8.00;99.90;;;;;;6302462;22;20711;-78
2023/01/08 04:05:44;;;;;;;1.92;0.20;;;8.00;99.90;;;;;;6251379;22;20011;-80
2023/01/08 04:08:10;;;;;;;0.68;0.20;;;8.00;99.90;;;;;;6276798;22;20005;-79
2023/01/08 04:10:35;;;;;;;1.00;0.20;;;8.00;99.90;;;;;;6303912;22;20015;-79
2023/01/08 04:13:01;;;;;;;1.08;0.10;;;8.00;99.90;;;;;;6304176;22;20000;-80
2023/01/08 04:15:27;;;;;;;1.05;0.10;;;8.00;99.90;;;;;;6303219;22;20039;-79
2023/01/08 04:17:53;;;;;;;0.98;0.08;;;8.00;99.90;;;;;;6251123;22;20033;-80
2023/01/08 04:20:18;;;;;;;1.38;0.10;;;8.00;99.90;;;;;;6250995;22;20458;-79
2023/01/08 04:22:44;;;;;;;1.38;0.10;;;8.00;99.90;;;;;;6251391;22;20399;-79
2023/01/08 04:25:10;;;;;;;2.08;0.10;;;7.90;99.90;;;;;;6303812;22;20002;-80
2023/01/08 04:27:36;;;;;;;1.67;0.10;;;7.90;99.90;;;;;;6276519;22;20064;-79
2023/01/08 04:30:02;;;;;;;0.85;0.00;;;8.00;99.90;;;;;;6276162;22;20003;-79
2023/01/08 04:32:28;;;;;;;0.77;0.10;;;7.90;99.90;;;;;;6276810;22;20029;-79
2023/01/08 04:34:54;;;;;;;0.90;0.10;;;7.90;99.90;;;;;;6275768;22;20468;-79
2023/01/08 04:37:19;;;;;;;0.43;0.00;;;7.90;99.90;;;;;;6302407;22;20011;-80
2023/01/08 04:39:45;;;;;;;0.55;0.10;;;7.90;99.90;;;;;;6276708;22;20082;-79
2023/01/08 04:42:11;;;;;;;0.68;0.00;;;7.90;99.90;;;;;;6302210;22;20038;-79
2023/01/08 04:44:36;;;;;;;1.48;0.05;;;7.90;99.90;;;;;;6276433;22;20005;-80
2023/01/08 04:47:02;;;;;;;0.32;0.00;;;7.90;99.90;;;;;;6276123;22;20000;-80
2023/01/08 04:49:28;;;;;;;0.77;0.00;;;7.90;99.90;;;;;;6275938;22;20388;-79
2023/01/08 04:51:53;;;;;;;0.70;0.00;;;7.90;99.90;;;;;;6276335;22;20007;-79
2023/01/08 04:54:19;;;;;;;1.63;0.10;;;7.90;99.90;;;;;;6276624;22;20336;-80
2023/01/08 04:56:44;;;;;;;1.33;0.00;;;7.90;99.90;;;;;;6276200;22;20359;-79
2023/01/08 04:59:10;;;;;;;1.63;0.00;;;7.90;99.90;;;;;;6275635;22;20009;-79
2023/01/08 05:01:36;;;;;;;0.40;0.00;;;7.90;99.90;;;;;;6250698;22;20368;-79
2023/01/08 05:04:03;;;;;;;0.77;0.00;;;7.90;99.90;;;;;;6250611;22;20344;-79
2023/01/08 05:06:30;;;;;;;0.60;0.00;;;7.90;99.90;;;;;;6275655;22;20015;-79
2023/01/08 05:08:56;;;;;;;0.95;0.00;;;7.90;99.90;;;;;;6303666;22;20015;-79
2023/01/08 05:11:22;;;;;;;1.67;0.00;;;7.90;99.90;;;;;;6276384;22;20000;-79
2023/01/08 05:13:49;;;;;;;1.50;0.00;;;7.90;99.90;;;;;;6249606;22;20011;-79
2023/01/08 05:16:15;;;;;;;0.63;0.00;;;7.90;99.90;;;;;;6250526;22;20072;-79
2023/01/08 05:18:42;;;;;;;1.85;0.10;;;7.90;99.90;;;;;;6276567;22;20367;-79
2023/01/08 05:21:07;;;;;;;0.43;0.13;;;7.90;99.90;;;;;;6275535;22;20210;-79
2023/01/08 05:23:33;;;;;;;1.10;0.10;;;7.90;99.90;;;;;;6276229;22;19999;-79
2023/01/08 05:26:00;;;;;;;1.48;0.10;;;8.00;99.90;;;;;;6301896;22;20003;-79
2023/01/08 05:28:26;;;;;;;1.60;0.00;;;7.90;99.90;;;;;;6275777;22;20033;-79
2023/01/08 05:30:52;;;;;;;1.08;0.00;;;7.90;99.90;;;;;;6303461;22;20007;-79
2023/01/08 05:33:18;;;;;;;0.65;0.10;;;7.90;99.90;;;;;;6275995;22;20406;-79
2023/01/08 05:35:44;;;;;;;1.00;0.00;;;7.90;99.90;;;;;;6301894;22;20050;-79
2023/01/08 05:38:09;;;;;;;0.75;0.00;;;7.90;99.90;;;;;;6301566;22;20000;-79
2023/01/08 05:40:35;;;;;;;0.52;0.00;;;7.90;99.90;;;;;;6276335;22;20015;-79
2023/01/08 05:43:01;;;;;;;0.25;0.00;;;7.90;99.90;;;;;;6302099;22;20006;-79
2023/01/08 05:45:27;;;;;;;1.95;0.10;;;7.90;99.90;;;;;;6303377;22;20013;-79
2023/01/08 05:47:53;;;;;;;0.75;0.13;;;7.90;99.90;;;;;;6275327;22;20428;-78
2023/01/08 05:50:19;;;;;;;1.15;0.10;;;7.90;99.90;;;;;;6301729;22;20375;-79
2023/01/08 05:52:45;;;;;;;0.55;0.10;;;7.90;99.90;;;;;;6301701;22;20007;-79
2023/01/08 05:55:10;;;;;;;0.30;0.10;;;7.90;99.90;;;;;;6275441;22;20396;-80
2023/01/08 05:57:36;;;;;;;0.63;0.10;;;7.90;99.90;;;;;;6249979;22;19999;-79
2023/01/08 06:00:04;;;;;;;0.85;0.10;;;7.90;99.90;;;;;;6275587;22;20008;-79
2023/01/08 06:02:37;;;;;;;1.60;0.20;;;7.90;99.90;;;;;;6301693;22;20011;-79
2023/01/08 06:05:03;;;;;;;1.42;0.10;;;7.90;99.90;;;;;;6249713;22;20035;-79
2023/01/08 06:07:29;;;;;;;0.75;0.10;;;7.90;99.90;;;;;;6249530;22;20007;-79
2023/01/08 06:09:54;;;;;;;1.33;0.13;;;7.90;99.90;;;;;;6275103;22;20019;-78
2023/01/08 06:12:20;;;;;;;0.68;0.20;;;7.90;99.90;;;;;;6275040;22;20010;-79
2023/01/08 06:14:45;;;;;;;1.20;0.30;;;8.00;99.90;;;;;;6300940;22;20416;-79
2023/01/08 06:17:11;;;;;;;1.40;0.38;;;8.00;99.90;;;;;;6275290;22;20038;-79
2023/01/08 06:19:38;;;;;;;0.90;0.50;;;8.00;99.90;;;;;;6275512;22;20435;-79
2023/01/08 06:22:04;;;;;;;1.15;0.30;;;8.00;99.90;;;;;;6302540;22;20127;-79
2023/01/08 06:24:30;;;;;;;1.52;0.20;;;8.00;99.90;;;;;;6275595;22;20006;-78
2023/01/08 06:26:56;;;;;;;0.38;0.20;;;8.00;99.90;;;;;;6274873;22;20011;-79
2023/01/08 06:29:22;;;;;;;0.30;0.10;;;8.00;99.90;;;;;;6275842;22;20378;-79
2023/01/08 06:31:47;;;;;;;0.98;0.10;;;8.00;99.90;;;;;;6302943;22;20348;-79
2023/01/08 06:34:13;;;;;;;0.52;0.10;;;8.00;99.90;;;;;;6275802;22;20090;-79
2023/01/08 06:36:39;;;;;;;2.50;0.20;;;8.00;99.90;;;;;;6275330;22;20455;-78
2023/01/08 06:39:06;;;;;;;0.85;0.20;;;8.00;99.90;;;;;;6249775;22;20007;-79
2023/01/08 06:41:31;;;;;;;1.00;0.20;;;8.10;99.90;;;;;;6275390;22;20011;-79
2023/01/08 06:43:57;;;;;;;2.42;0.20;;;8.00;99.90;;;;;;6275230;22;20444;-79
2023/01/08 06:46:22;;;;;;;0.82;0.20;;;7.90;99.90;;;;;;6275306;22;20026;-79
2023/01/08 06:48:48;;;;;;;0.60;0.10;;;7.90;99.90;;;;;;6299773;22;20003;-79
2023/01/08 06:51:14;;;;;;;3.67;0.20;;;7.90;99.90;;;;;;6275125;22;20007;-79
2023/01/08 06:53:39;;;;;;;1.58;0.15;;;7.90;99.90;;;;;;6300486;22;20014;-79
2023/01/08 06:56:08;;;;;;;0.90;0.20;;;7.80;99.90;;;;;;6299583;22;20015;-79
2023/01/08 06:58:34;;;;;;;1.08;0.20;;;7.80;99.90;;;;;;6275403;22;20007;-79
2023/01/08 07:00:59;;;;;;;0.93;0.20;;;7.70;99.90;;;;;;6251298;22;20038;-79
2023/01/08 07:03:25;;;;;;;1.20;0.30;;;7.60;99.90;;;;;;6276455;22;20014;-79
2023/01/08 07:05:51;;;;;;;2.03;0.22;;;7.60;99.90;;;;;;6276377;22;20085;-79
2023/01/08 07:08:18;;;;;;;1.60;0.20;;;7.50;99.90;;;;;;6277122;22;20007;-80
2023/01/08 07:10:43;;;;;;;1.25;0.20;;;7.60;99.90;;;;;;6276591;22;20034;-79
2023/01/08 07:13:11;;;;;;;1.33;0.20;;;7.50;99.90;;;;;;6276960;22;20031;-80
2023/01/08 07:15:43;;;;;;;1.75;0.20;;;7.40;99.90;;;;;;6251117;22;20447;-79
2023/01/08 07:18:12;;;;;;;0.88;0.20;;;7.50;99.90;;;;;;6276138;22;20000;-79
2023/01/08 07:20:38;;;;;;;2.45;0.47;;;7.40;99.90;;;;;;6277472;22;20317;-79
2023/01/08 07:23:06;;;;;;;1.17;0.40;;;7.30;99.90;;;;;;6276140;22;20007;-79
2023/01/08 07:25:32;;;;;;;1.65;0.50;;;7.30;99.90;;;;;;6276325;22;20011;-79
2023/01/08 07:27:59;;;;;;;2.15;0.40;;;7.20;99.90;;;;;;6276640;22;19991;-79
2023/01/08 07:30:25;;;;;;;0.88;0.20;;;7.20;99.90;;;;;;6303090;22;20331;-79
2023/01/08 07:32:51;;;;;;;0.75;0.20;;;7.20;99.90;;;;;;6303862;22;20319;-79
2023/01/08 07:35:17;;;;;;;0.68;0.20;;;7.20;99.90;;;;;;6251232;22;20017;-79
2023/01/08 07:37:43;;;;;;;1.27;0.10;;;7.10;99.90;;;;;;6301648;22;20088;-79
2023/01/08 07:40:10;;;;;;;2.35;0.20;;;7.00;99.90;;;;;;6275206;22;20007;-79
2023/01/08 07:42:37;;;;;;;0.80;0.10;;;7.00;99.90;;;;;;6304182;22;20007;-80
2023/01/08 07:45:04;;;;;;;1.08;0.10;;;7.00;99.90;;;;;;6276889;22;20003;-80
2023/01/08 07:47:29;;;;;;;0.73;0.10;;;7.00;99.90;;;;;;6303984;22;20003;-80
2023/01/08 07:49:55;;;;;;;1.30;0.20;;;7.00;99.90;;;;;;6304135;22;20011;-79
2023/01/08 07:52:21;;;;;;;1.98;0.25;;;6.90;99.90;;;;;;6303057;22;20010;-79
2023/01/08 07:54:47;;;;;;;1.88;0.35;;;7.00;99.90;;;;;;6302925;22;20041;-80
2023/01/08 07:57:13;;;;;;;1.95;0.32;;;7.10;99.90;;;;;;6276945;22;20049;-79
2023/01/08 07:59:38;;;;;;;1.95;0.25;;;7.00;99.90;;;;;;6301480;22;20003;-79
2023/01/08 08:02:04;;;;;;;2.33;0.20;;;7.10;99.90;;;;;;6276331;22;20409;-79
2023/01/08 08:04:29;;;;;;;1.52;0.20;;;7.10;99.90;;;;;;6276170;22;20038;-80
2023/01/08 08:06:55;;;;;;;0.70;0.10;;;7.10;99.90;;;;;;6303817;22;20007;-80
2023/01/08 08:09:21;;;;;;;1.10;0.10;;;7.00;99.90;;;;;;6275327;22;20310;-80
2023/01/08 08:11:47;;;;;;;3.35;0.20;;;7.00;99.90;;;;;;6250130;22;20313;-78
2023/01/08 08:14:13;;;;;;;1.52;0.20;;;7.00;99.90;;;;;;6275800;22;20017;-79
2023/01/08 08:16:38;;;;;;;4.13;0.30;;;7.00;99.90;;;;;;6302433;22;20019;-78
2023/01/08 08:19:04;;;;;;;1.02;0.13;;;7.00;99.90;;;;;;6249960;22;20007;-78
2023/01/08 08:21:30;;;;;;;1.42;0.10;;;7.00;99.90;;;;;;6276211;22;20012;-79
2023/01/08 08:23:56;;;;;;;2.50;0.20;;;6.90;99.90;;;;;;6249597;22;20057;-80
2023/01/08 08:26:22;;;;;;;1.85;0.20;;;6.90;99.90;;;;;;6276446;22;20078;-80
2023/01/08 08:28:48;;;;;;;1.63;0.10;;;6.90;99.90;;;;;;6276230;22;20007;-80
2023/01/08 08:31:14;;;;;;;2.88;0.20;;;6.90;99.90;;;;;;6302046;22;20090;-79
2023/01/08 08:33:40;;;;;;;2.75;0.20;;;6.90;99.90;;;;;;6303746;22;20027;-79
2023/01/08 08:36:06;;;;;;;2.55;0.13;;;6.80;99.90;;;;;;6250260;22;20026;-79
2023/01/08 08:38:32;;;;;;;5.10;0.98;;;6.80;99.90;;;;;;6275488;22;20003;-78
2023/01/08 08:40:58;;;;;;;2.15;0.10;;;6.90;99.90;;;;;;6303023;22;20018;-78
2023/01/08 08:43:24;;;;;;;2.08;0.20;;;6.80;99.90;;;;;;6250454;22;20015;-79
2023/01/08 08:45:49;;;;;;;2.13;0.10;;;6.90;99.90;;;;;;6275430;22;20007;-79
2023/01/08 08:48:15;;;;;;;3.38;0.30;;;6.90;99.90;;;;;;6276047;22;20019;-79
2023/01/08 08:50:41;;;;;;;4.22;0.20;;;6.90;99.90;;;;;;6276048;22;20525;-79
2023/01/08 08:53:08;;;;;;;3.75;0.17;;;6.90;99.90;;;;;;6274845;22;20957;-79
2023/01/08 08:55:34;;;;;;;2.15;0.10;;;7.00;99.90;;;;;;6250248;22;20440;-79
2023/01/08 08:58:11;;;;;;;3.47;0.10;;;7.10;99.90;;;;;;6275724;22;20031;-79
2023/01/08 09:00:39;;;;;;;3.15;0.20;;;7.10;99.90;;;;;;6250039;22;20011;-79
2023/01/08 09:03:04;;;;;;;2.03;0.10;;;7.10;99.90;;;;;;6275472;22;20050;-79
2023/01/08 09:05:30;;;;;;;2.08;0.10;;;7.30;99.90;;;;;;6275419;22;20385;-79
2023/01/08 09:07:56;;;;;;;3.50;0.20;;;7.40;99.90;;;;;;6300959;22;20306;-80
2023/01/08 09:10:22;;;;;;;1.50;0.10;;;7.40;99.90;;;;;;6250168;22;20012;-79
2023/01/08 09:12:48;;;;;;;2.42;0.10;;;7.50;99.90;;;;;;6300982;22;20481;-79
2023/01/08 09:15:14;;;;;;;2.05;0.10;;;7.50;99.90;;;;;;6275388;22;20019;-79
2023/01/08 09:17:39;;;;;;;6.03;0.40;;;7.50;99.90;;;;;;6275791;22;20000;-79
2023/01/08 09:20:05;;;;;;;1.10;0.10;;;7.60;99.90;;;;;;6301916;22;20102;-78
2023/01/08 09:22:31;;;;;;;3.40;0.10;;;7.60;99.90;;;;;;6275441;22;20338;-79
2023/01/08 09:24:57;;;;;;;3.80;0.10;;;7.50;99.90;;;;;;6275084;22;20010;-80
2023/01/08 09:27:23;;;;;;;2.97;0.17;;;7.50;99.90;;;;;;6276067;22;20015;-79
2023/01/08 09:29:48;;;;;;;2.45;0.30;;;7.50;99.90;;;;;;6300539;22;20038;-79
2023/01/08 09:32:14;;;;;;;0.90;0.10;;;7.50;99.90;;;;;;6275100;22;20311;-80
2023/01/08 09:34:40;;;;;;;1.80;0.20;;;7.60;99.90;;;;;;6274579;22;20007;-79
2023/01/08 09:37:06;;;;;;;1.88;0.10;;;7.70;99.90;;;;;;6257892;22;20015;-80
2023/01/08 09:39:32;;;;;;;2.50;0.20;;;7.70;99.90;;;;;;6247861;22;20015;-79
2023/01/08 09:42:04;;;;;;;3.42;0.28;;;7.70;99.90;;;;;;6302218;22;20037;-79
2023/01/08 09:44:37;;;;;;;1.70;0.10;;;7.70;99.90;;;;;;6300799;22;20022;-78
2023/01/08 09:47:04;;;;;;;2.60;0.15;;;7.80;99.90;;;;;;6248168;22;20431;-79
2023/01/08 09:49:41;;;;;;;2.95;0.13;;;7.80;99.90;;;;;;6301763;22;20141;-78
2023/01/08 09:52:11;;;;;;;2.60;0.20;;;7.90;99.90;;;;;;6265586;22;20003;-80
2023/01/08 09:54:36;;;;;;;5.82;0.63;;;8.00;99.90;;;;;;6249616;22;20019;-79
2023/01/08 09:57:02;;;;;;;2.33;0.20;;;7.90;99.90;;;;;;6249056;22;20022;-80
2023/01/08 09:59:29;;;;;;;2.42;0.20;;;7.90;99.90;;;;;;6249392;22;20348;-80
2023/01/08 10:01:55;;;;;;;2.72;0.25;;;7.90;99.90;;;;;;6300178;22;20219;-79
2023/01/08 10:04:24;;;;;;;2.72;0.10;;;7.80;99.90;;;;;;6274257;22;20325;-80
2023/01/08 10:06:58;;;;;;;3.55;0.20;;;7.80;99.90;;;;;;6274245;22;20034;-80
2023/01/08 10:09:30;;;;;;;2.47;0.20;;;7.80;99.90;;;;;;6249613;22;20096;-79
2023/01/08 10:12:00;;;;;;;1.70;0.10;;;7.90;99.90;;;;;;6274636;22;20007;-80
2023/01/08 10:14:32;;;;;;;2.78;0.20;;;8.00;99.90;;;;;;6275014;22;20042;-79
2023/01/08 10:17:26;;;;;;;3.58;0.17;;;8.10;99.90;;;;;;6249459;22;20505;-80
2023/01/08 10:19:53;;;;;;;2.75;0.20;;;8.20;99.90;;;;;;6268301;22;19999;-80
2023/01/08 10:22:31;;;;;;;4.55;0.30;;;8.10;99.90;;;;;;6275348;22;20435;-79
2023/01/08 10:25:33;;;;;;;5.45;0.22;;;8.10;99.90;;;;;;6274739;22;20003;-79
2023/01/08 10:28:00;;;;;;;2.22;0.20;;;8.10;99.90;;;;;;6152056;23;20076;-80
2023/01/08 10:30:36;;;;;;;4.82;0.20;;;8.00;99.90;;;;;;6177395;23;20068;-80
2023/01/08 10:33:17;;;;;;;1.90;0.28;;;8.00;99.90;;;;;;6126491;23;20016;-79
2023/01/08 10:35:49;;;;;;;4.22;0.20;;;8.00;99.90;;;;;;6128282;23;20472;-80
2023/01/08 10:38:28;;;;;;;1.95;0.20;;;8.00;99.90;;;;;;6177400;23;20083;-79
2023/01/08 10:40:55;;;;;;;2.63;0.30;;;8.00;99.90;;;;;;6127966;23;20456;-80
2023/01/08 10:43:27;;;;;;;3.70;0.30;;;8.00;99.90;;;;;;6152234;23;20040;-80
2023/01/08 10:46:01;;;;;;;2.35;0.20;;;8.00;99.90;;;;;;6127429;23;20019;-79
2023/01/08 10:48:34;;;;;;;3.33;0.20;;;8.00;99.90;;;;;;6152259;23;20088;-79
2023/01/08 10:51:13;;;;;;;3.60;0.20;;;8.00;99.90;;;;;;6152467;23;20078;-79
2023/01/08 10:53:40;;;;;;;1.23;0.10;;;8.00;99.90;;;;;;6177359;23;20013;-79
2023/01/08 10:56:06;;;;;;;1.73;0.10;;;8.00;99.90;;;;;;6127409;23;20033;-79
2023/01/08 10:58:41;;;;;;;2.38;0.20;;;8.10;99.90;;;;;;6176985;23;20084;-79
2023/01/08 11:01:22;;;;;;;3.53;0.25;;;8.30;99.90;;;;;;6171287;22;20418;-79
2023/01/08 11:04:00;;;;;;;2.45;0.20;;;8.40;99.90;;;;;;6274370;22;20007;-79
2023/01/08 11:06:31;;;;;;;1.02;0.20;;;8.50;99.90;;;;;;6274884;22;20075;-79
2023/01/08 11:08:59;;;;;;;1.17;0.20;;;8.50;99.90;;;;;;6274526;22;20003;-79
2023/01/08 11:11:35;;;;;;;3.33;0.35;;;8.40;99.90;;;;;;6274954;22;20003;-79
2023/01/08 11:14:05;;;;;;;2.38;0.20;;;8.40;99.90;;;;;;6273998;22;20007;-79
2023/01/08 11:16:38;;;;;;;4.00;0.20;;;8.60;99.90;;;;;;6274019;22;20140;-79
2023/01/08 11:19:13;;;;;;;1.85;0.20;;;8.70;99.90;;;;;;6274753;22;20007;-79
2023/01/08 11:21:39;;;;;;;2.45;0.35;;;8.80;99.90;;;;;;6249381;22;20043;-79
2023/01/08 11:24:20;;;;;;;3.25;0.20;;;9.00;99.90;;;;;;6273662;22;20026;-79
2023/01/08 11:27:11;;;;;;;2.53;0.28;;;9.10;99.90;;;;;;6249001;22;20015;-80
2023/01/08 11:30:04;;;;;;;6.22;0.75;;;9.30;99.90;;;;;;6274629;22;20368;-79
2023/01/08 11:32:53;;;;;;;2.13;0.22;;;9.30;99.90;;;;;;6248539;22;20006;-79
2023/01/08 11:35:24;;;;;;;3.88;0.47;;;9.30;99.90;;;;;;6275050;22;20007;-79
2023/01/08 11:37:52;;;;;;;0.93;0.10;;;9.30;99.90;;;;;;6274601;22;20136;-78
2023/01/08 11:40:37;;;;;;;2.80;0.10;;;9.30;99.90;;;;;;6302760;22;20044;-81
2023/01/08 11:43:11;;;;;;;3.20;0.10;;;9.20;99.90;;;;;;6274047;22;20014;-81
2023/01/08 11:46:23;;;;;;;1.50;0.10;;;9.10;99.90;;;;;;6249629;22;20003;-79
2023/01/08 11:49:13;;;;;;;1.58;0.10;;;9.10;99.90;;;;;;6275135;22;20007;-80
2023/01/08 11:51:45;;;;;;;0.82;0.10;;;9.20;99.90;;;;;;6302269;22;20011;-79
2023/01/08 11:54:21;;;;;;;1.65;0.10;;;9.20;99.90;;;;;;6250498;22;20048;-79
2023/01/08 11:57:06;;;;;;;1.48;0.10;;;9.40;99.90;;;;;;6276067;22;20039;-79
2023/01/08 12:00:15;;;;;;;0.77;0.10;;;9.70;99.90;;;;;;6301261;22;20446;-79
2023/01/08 12:02:54;;;;;;;1.90;0.10;;;9.80;99.90;;;;;;6250489;22;20061;-79
2023/01/08 12:05:45;;;;;;;1.13;0.10;;;9.90;99.90;;;;;;6220400;22;20134;-80
2023/01/08 12:08:29;;;;;;;0.90;0.10;;;10.00;99.90;;;;;;6236541;22;20336;-80
2023/01/08 12:11:12;;;;;;;1.20;0.10;;;10.10;99.90;;;;;;6239107;22;20014;-80
2023/01/08 12:13:47;;;;;;;1.95;0.20;;;10.00;99.90;;;;;;6262482;22;20011;-78
2023/01/08 12:16:31;;;;;;;1.50;0.10;;;9.90;99.90;;;;;;6289142;22;20019;-79
2023/01/08 12:19:05;;;;;;;0.30;0.00;;;9.80;99.90;;;;;;6289758;22;20495;-79
2023/01/08 12:21:38;;;;;;;1.02;0.10;;;9.60;99.90;;;;;;6236918;22;20347;-80
2023/01/08 12:24:03;;;;;;;0.70;0.10;;;9.70;99.90;;;;;;6290277;22;20056;-80
2023/01/08 12:26:51;;;;;;;1.23;0.10;;;9.80;99.90;;;;;;6261505;22;20015;-81
2023/01/08 12:29:54;;;;;;;0.50;0.10;;;9.80;99.90;;;;;;6236678;22;20031;-80
2023/01/08 12:32:26;;;;;;;0.43;0.03;;;9.80;99.90;;;;;;6261845;22;20400;-79
2023/01/08 12:35:09;;;;;;;1.17;0.10;;;9.90;99.90;;;;;;6261735;22;20014;-80
2023/01/08 12:38:00;;;;;;;0.43;0.00;;;9.90;99.90;;;;;;6261504;22;20011;-79
2023/01/08 12:40:45;;;;;;;0.88;0.08;;;9.80;99.90;;;;;;6262204;22;20074;-79
2023/01/08 12:43:45;;;;;;;0.88;0.05;;;9.90;99.90;;;;;;6289245;22;20447;-79
2023/01/08 12:46:15;;;;;;;1.30;0.00;;;9.80;99.90;;;;;;6235642;22;20033;-79
2023/01/08 12:48:44;;;;;;;1.67;0.00;;;9.80;99.90;;;;;;6262578;22;20011;-80
2023/01/08 12:51:18;;;;;;;0.55;0.08;;;9.80;99.90;;;;;;6261605;22;20014;-79
2023/01/08 12:53:49;;;;;;;1.38;0.20;;;9.90;99.90;;;;;;6231877;22;20090;-79
2023/01/08 12:56:19;;;;;;;1.30;0.10;;;10.00;99.90;;;;;;6205157;22;20038;-80
2023/01/08 12:58:44;;;;;;;0.30;0.00;;;9.80;99.90;;;;;;6231363;22;20191;-80
2023/01/08 13:01:30;;;;;;;0.22;0.00;;;9.90;99.90;;;;;;6257975;22;20389;-80
2023/01/08 13:03:58;;;;;;;0.98;0.00;;;9.90;99.90;;;;;;6233997;22;20401;-80
2023/01/08 13:06:23;;;;;;;0.77;0.10;;;9.90;99.90;;;;;;6219206;22;20013;-80
2023/01/08 13:08:53;;;;;;;0.10;0.05;;;9.90;99.90;;;;;;6269126;22;20203;-79
2023/01/08 13:11:29;;;;;;;0.87;0.10;;;9.90;99.90;;;;;;6243176;22;20011;-80
2023/01/08 13:14:16;;;;;;;1.42;0.20;;;9.90;99.90;;;;;;6218253;22;20242;-81